Terminal Aerodrome Forecast
Issued by NWS

Home | Current Version | Previous Version | Text Only | Print | Product List | Glossary On
Versions: 1 2 3 4 5 6 7 8 9 10 11 12 13
227
FTUS46 KPDT 202320
TAFPSC
TAF
KPSC 202320Z 2100/2124 24020G30KT P6SM SCT080 SCT200
     FM210300 24015G23KT P6SM BKN100
     FM211500 20010KT P6SM -RA BKN050=

USA.gov is the U.S. government's official web portal to all federal, state and local government web resources and services.